Weather at Toužim Airfield

Public forecast

Using degrees Celsius for public forecast. Weather courtesy of forecast.io.

Closest aviation weather report (METAR) to Toužim Airfield

Closest report is Karlovy Vary International Airport, 7.2 nm (13.2 km) NNW. Retrieved 2021/09/21 04:00 UTC (12 minutes ago):

LKKV 210400Z 22002KT 9999 OVC040 06/05 Q1025

Closest aviation forecast (TAF) to Toužim Airfield

Closest forecast is Karlovy Vary International Airport, 7.2 nm (13.2 km) NNW. Retrieved 2021-09-21 00:13 UTC (4 hours ago):

TAF LKKV 202300Z 2100/2206 VRB02KT 9999 BKN044 PROB30 TEMPO 2101/2107 3000 BR BKN010 BECMG 2108/2110 32006KT BECMG 2203/2205 OVC017 TEMPO 2205/2206 7000 -RA OVC010